Urb Riveras del Bucana, Puerto Rico
Current Conditions -  °F | °C
As of 2:50 PM on Friday 31 Oct 2014 (Local Time) from TJBQ Reporting Station
Thunderstorm Thunderstorm  
Wind Chill: 79°   Ceiling: 1600
Heat Index: 82°   Visibility: 5mi
Dew Point: 75°   Wind: 8mph
Humidity: 89%   Direction: 30°NNE
Pressure: 29.86"   Gusts: NA
Location:  18.0179°N, 66.6229°W
Report Text: TJBQ 311850Z 03007KT 5SM TSRA BKN016 BKN024 OVC030 26/24 A2986 RMK LTG OHD DSNT E-S VIS W 2 ----RWY08 - ATIS T
Loading
Personal Weather Stations






























Interactive Weather Map
Tropical Storm Tracking
New forecast layout! Learn more

10-Day Weather Forecast

Advertisements
Track Severe Weather on mobile